Aviation Digital Data Service (ADDS)

Output produced by METARs form (0340 UTC 26 June 2019)
found at http://www.aviationweather.gov/metar/data/
 
METAR text: HBBA 251800Z 00000KT 8000 FEW030 BKN100 24/20 Q1014 NOSIG
Conditions at: HBBA (BUJUMBURA , BI) observed 1800 UTC 25 June 2019
Temperature: 24.0°C (75°F)
Dewpoint: 20.0°C (68°F) [RH = 78%]
Pressure (altimeter): 29.94 inches Hg (1014.0 mb)
Winds: calm
Visibility: 5 miles ( 8 km)
Ceiling: 10000 feet AGL
Clouds: few clouds at 3000 feet AGL
broken clouds at 10000 feet AGL
Weather: no significant weather observed at this time

METAR text: HBBA 251700Z 00000KT 7000 FEW030 BKN100 25/20 Q1014 NOSIG
Conditions at: HBBA (BUJUMBURA , BI) observed 1700 UTC 25 June 2019
Temperature: 25.0°C (77°F)
Dewpoint: 20.0°C (68°F) [RH = 74%]
Pressure (altimeter): 29.94 inches Hg (1014.0 mb)
Winds: calm
Visibility: 4 miles ( 7 km)
Ceiling: 10000 feet AGL
Clouds: few clouds at 3000 feet AGL
broken clouds at 10000 feet AGL
Weather: no significant weather observed at this time

METAR text: HBBA 251600Z 00000KT 6000 SCT030 BKN100 25/21 Q1013 NOSIG
Conditions at: HBBA (BUJUMBURA , BI) observed 1600 UTC 25 June 2019
Temperature: 25.0°C (77°F)
Dewpoint: 21.0°C (70°F) [RH = 79%]
Pressure (altimeter): 29.91 inches Hg (1013.0 mb)
Winds: calm
Visibility: 4 miles ( 6 km)
Ceiling: 10000 feet AGL
Clouds: scattered clouds at 3000 feet AGL
broken clouds at 10000 feet AGL
Weather: no significant weather observed at this time

METAR text: HBBA 251500Z 18006KT 5000HZ FEW030 BKN100 26/19 Q1011 NOSIG
Conditions at: HBBA (BUJUMBURA , BI) observed 1500 UTC 25 June 2019
Temperature: 26.0°C (79°F)
Dewpoint: 19.0°C (66°F) [RH = 65%]
Pressure (altimeter): 29.85 inches Hg (1011.0 mb)
Winds: from the S (180 degrees) at 7 MPH (6 knots; 3.1 m/s)
Visibility: missing
Ceiling: 10000 feet AGL
Clouds: few clouds at 3000 feet AGL
broken clouds at 10000 feet AGL
Weather: HZ  (haze)

METAR text: HBBA 251400Z 16002KT 5000HZ FEW030 BKN100 26/19 Q1012 NOSIG
Conditions at: HBBA (BUJUMBURA , BI) observed 1400 UTC 25 June 2019
Temperature: 26.0°C (79°F)
Dewpoint: 19.0°C (66°F) [RH = 65%]
Pressure (altimeter): 29.88 inches Hg (1012.0 mb)
Winds: from the SSE (160 degrees) at 2 MPH (2 knots; 1.0 m/s)
Visibility: missing
Ceiling: 10000 feet AGL
Clouds: few clouds at 3000 feet AGL
broken clouds at 10000 feet AGL
Weather: HZ  (haze)

METAR text: HBBA 251300Z 18002KT 5000HZ FEW030 BKN100 26/21 Q1012 NOSIG
Conditions at: HBBA (BUJUMBURA , BI) observed 1300 UTC 25 June 2019
Temperature: 26.0°C (79°F)
Dewpoint: 21.0°C (70°F) [RH = 74%]
Pressure (altimeter): 29.88 inches Hg (1012.0 mb)
Winds: from the S (180 degrees) at 2 MPH (2 knots; 1.0 m/s)
Visibility: missing
Ceiling: 10000 feet AGL
Clouds: few clouds at 3000 feet AGL
broken clouds at 10000 feet AGL
Weather: HZ  (haze)

METAR text: HBBA 250900Z 09002KT 7000 FEW025 BKN100 24/20 Q1016 NOSIG
Conditions at: HBBA (BUJUMBURA , BI) observed 0900 UTC 25 June 2019
Temperature: 24.0°C (75°F)
Dewpoint: 20.0°C (68°F) [RH = 78%]
Pressure (altimeter): 30.00 inches Hg (1016.0 mb)
Winds: from the E (90 degrees) at 2 MPH (2 knots; 1.0 m/s)
Visibility: 4 miles ( 7 km)
Ceiling: 10000 feet AGL
Clouds: few clouds at 2500 feet AGL
broken clouds at 10000 feet AGL
Weather: no significant weather observed at this time

Forecast for: HBBA (BUJUMBURA , BI)
Text: TAF HBBA 251700Z 2518/2624 36002KT 9999 SCT080
Forecast period: 1800 UTC 25 June 2019 to 0200 UTC 26 June 2019
Forecast type: FROM: standard forecast or significant change
Winds: from the N (360 degrees) at 2 MPH (2 knots; 1.0 m/s)
Visibility: 6 or more miles 10+ km)
Ceiling: at least 12,000 feet AGL
Clouds: scattered clouds at 8000 feet AGL
Weather: no significant weather forecast for this period
Text: BECMG 2602/2604 36002KT CAVOK
Forecast period: 0200 to 0700 UTC 26 June 2019
Forecast type: BECOMING: Conditions expected to become as follows by 0400 UTC 26 June 2019
Winds: from the N (360 degrees) at 2 MPH (2 knots; 1.0 m/s)
Visibility: 6 or more miles 10+ km)
Ceiling: unknown
Clouds: missing
Weather: NSW  (no significant weather)
Text: BECMG 2607/2609 18010G15KT 5000 FEW025 SCT100
Forecast period: 0700 to 1700 UTC 26 June 2019
Forecast type: BECOMING: Conditions expected to become as follows by 0900 UTC 26 June 2019
Winds: from the S (180 degrees) at 12 MPH (10 knots; 5.1 m/s)
gusting to 17 MPH (15 knots; 7.7 m/s)
Visibility: 3 miles (5 km)
Ceiling: at least 12,000 feet AGL
Clouds: few clouds at 2500 feet AGL
scattered clouds at 10000 feet AGL
Weather: NSW  (no significant weather)
Text: BECMG 2617/2618 36003KT 9999 SCT080
Forecast period: 1700 UTC 26 June 2019 to 0000 UTC 27 June 2019
Forecast type: BECOMING: Conditions expected to become as follows by 1800 UTC 26 June 2019
Winds: from the N (360 degrees) at 3 MPH (3 knots; 1.5 m/s)
Visibility: 6 or more miles 10+ km)
Ceiling: at least 12,000 feet AGL
Clouds: scattered clouds at 8000 feet AGL
Weather: NSW  (no significant weather)